createdAt,value
2016-03-04T00:00:24.057Z,997.28
2016-03-04T00:01:24.028Z,997.33
2016-03-04T00:02:24.016Z,997.32
2016-03-04T00:03:24.003Z,997.28
2016-03-04T00:04:23.990Z,997.29
2016-03-04T00:05:23.960Z,997.29
2016-03-04T00:06:23.948Z,997.34
2016-03-04T00:07:23.919Z,997.29
2016-03-04T00:08:23.907Z,997.32
2016-03-04T00:09:23.879Z,997.33
2016-03-04T00:10:23.866Z,997.3
2016-03-04T00:11:23.852Z,997.34
2016-03-04T00:12:23.824Z,997.3
2016-03-04T00:13:23.826Z,997.29
2016-03-04T00:14:23.798Z,997.25
2016-03-04T00:15:23.770Z,997.3
2016-03-04T00:16:23.756Z,997.29
2016-03-04T00:17:23.743Z,997.26
2016-03-04T00:18:23.715Z,997.25
2016-03-04T00:19:23.701Z,997.28
2016-03-04T00:20:23.673Z,997.27
2016-03-04T00:21:23.661Z,997.3
2016-03-04T00:22:23.647Z,997.26
2016-03-04T00:23:23.619Z,997.28
2016-03-04T00:24:23.606Z,997.23
2016-03-04T00:25:23.578Z,997.25
2016-03-04T00:26:23.565Z,997.24
2016-03-04T00:27:23.551Z,997.23
2016-03-04T00:28:23.523Z,997.19
2016-03-04T00:29:23.510Z,997.16
2016-03-04T00:30:23.513Z,997.17
2016-03-04T00:31:23.488Z,997.17
2016-03-04T00:32:23.449Z,997.12
2016-03-04T00:33:23.437Z,997.12
2016-03-04T00:34:23.424Z,997.1
2016-03-04T00:35:23.396Z,997.13
2016-03-04T00:36:23.382Z,997.09
2016-03-04T00:37:23.353Z,997.09
2016-03-04T00:38:23.340Z,997.05
2016-03-04T00:39:23.329Z,997.03
2016-03-04T00:40:23.299Z,997.05
2016-03-04T00:41:23.287Z,997.08
2016-03-04T00:42:23.273Z,997.06
2016-03-04T00:43:23.245Z,996.99
2016-03-04T00:44:23.231Z,997
2016-03-04T00:45:23.203Z,996.95
2016-03-04T00:46:23.190Z,996.96
2016-03-04T00:47:23.178Z,996.96
2016-03-04T00:48:23.150Z,996.95
2016-03-04T00:49:23.136Z,996.92
2016-03-04T00:50:23.108Z,996.94
2016-03-04T00:51:23.094Z,996.92
2016-03-04T00:52:23.082Z,996.92
2016-03-04T00:53:23.053Z,996.93
2016-03-04T00:54:23.041Z,996.92
2016-03-04T00:55:23.012Z,996.91
2016-03-04T00:56:23.000Z,996.88
2016-03-04T00:57:22.970Z,996.88
2016-03-04T00:58:22.958Z,996.84
2016-03-04T00:59:22.945Z,996.8
2016-03-04T01:00:22.917Z,996.79
2016-03-04T01:01:22.903Z,996.78
2016-03-04T01:02:22.875Z,996.8
2016-03-04T01:03:22.862Z,996.79
2016-03-04T01:04:22.849Z,996.8
2016-03-04T01:05:22.837Z,996.77
2016-03-04T01:06:22.808Z,996.77
2016-03-04T01:07:22.795Z,996.73
2016-03-04T01:08:22.782Z,996.73
2016-03-04T01:09:22.753Z,996.71
2016-03-04T01:10:22.725Z,996.71
2016-03-04T01:11:22.728Z,996.67
2016-03-04T01:12:22.699Z,996.7
2016-03-04T01:13:22.671Z,996.66
2016-03-04T01:14:22.658Z,996.69
2016-03-04T01:15:22.629Z,996.71
2016-03-04T01:16:22.616Z,996.7
2016-03-04T01:17:22.604Z,996.69
2016-03-04T01:18:22.574Z,996.67
2016-03-04T01:19:22.561Z,996.67
2016-03-04T01:20:22.549Z,996.65
2016-03-04T01:21:22.520Z,996.66
2016-03-04T01:22:22.507Z,996.64
2016-03-04T01:23:22.478Z,996.65
2016-03-04T01:24:22.465Z,996.63
2016-03-04T01:25:22.453Z,996.62
2016-03-04T01:26:22.424Z,996.59
2016-03-04T01:27:22.411Z,996.64
2016-03-04T01:28:22.383Z,996.64
2016-03-04T01:29:22.370Z,996.61
2016-03-04T01:30:22.356Z,996.57
2016-03-04T01:31:22.328Z,996.62
2016-03-04T01:32:22.315Z,996.58
2016-03-04T01:33:22.287Z,996.61
2016-03-04T01:34:22.274Z,996.59
2016-03-04T01:35:22.245Z,996.63
2016-03-04T01:36:22.232Z,996.61
2016-03-04T01:37:22.219Z,996.62
2016-03-04T01:38:22.190Z,996.6
2016-03-04T01:39:22.178Z,996.62
2016-03-04T01:40:22.165Z,996.6
2016-03-04T01:41:22.136Z,996.6
2016-03-04T01:42:22.123Z,996.58
2016-03-04T01:43:22.094Z,996.58
2016-03-04T01:44:22.082Z,996.59
2016-03-04T01:45:22.069Z,996.6
2016-03-04T01:46:22.057Z,996.6
2016-03-04T01:47:22.027Z,996.58
2016-03-04T01:48:22.015Z,996.58
2016-03-04T01:49:21.986Z,996.56
2016-03-04T01:50:21.973Z,996.52
2016-03-04T01:51:21.944Z,996.5
2016-03-04T01:52:21.932Z,996.44
2016-03-04T01:53:21.904Z,996.46
2016-03-04T01:54:21.890Z,996.46
2016-03-04T01:55:21.876Z,996.46
2016-03-04T01:56:21.848Z,996.41
2016-03-04T01:57:21.836Z,996.42
2016-03-04T01:58:21.822Z,996.41
2016-03-04T01:59:21.794Z,996.44
2016-03-04T02:00:21.778Z,996.43
2016-03-04T02:01:21.765Z,996.41
2016-03-04T02:02:21.737Z,996.41
2016-03-04T02:03:21.724Z,996.41
2016-03-04T02:04:21.696Z,996.36
2016-03-04T02:05:21.683Z,996.42
2016-03-04T02:06:21.669Z,996.4
2016-03-04T02:07:21.641Z,996.38
2016-03-04T02:08:21.627Z,996.34
2016-03-04T02:09:21.599Z,996.38
2016-03-04T02:10:21.586Z,996.35
2016-03-04T02:11:21.557Z,996.34
2016-03-04T02:12:21.544Z,996.36
2016-03-04T02:13:21.516Z,996.37
2016-03-04T02:14:21.503Z,996.41
2016-03-04T02:15:21.490Z,996.36
2016-03-04T02:16:21.477Z,996.38
2016-03-04T02:17:21.449Z,996.43
2016-03-04T02:18:21.420Z,996.39
2016-03-04T02:19:21.407Z,996.37
2016-03-04T02:20:21.395Z,996.34
2016-03-04T02:21:21.365Z,996.37
2016-03-04T02:22:21.353Z,996.36
2016-03-04T02:23:21.323Z,996.36
2016-03-04T02:24:21.311Z,996.32
2016-03-04T02:25:21.298Z,996.35
2016-03-04T02:26:21.270Z,996.32
2016-03-04T02:27:21.261Z,996.32
2016-03-04T02:28:21.233Z,996.3
2016-03-04T02:29:21.219Z,996.3
2016-03-04T02:30:21.191Z,996.35
2016-03-04T02:31:21.178Z,996.33
2016-03-04T02:32:21.166Z,996.32
2016-03-04T02:33:21.137Z,996.27
2016-03-04T02:34:21.124Z,996.26
2016-03-04T02:35:21.096Z,996.26
2016-03-04T02:36:21.083Z,996.28
2016-03-04T02:37:21.069Z,996.26
2016-03-04T02:38:21.057Z,996.26
2016-03-04T02:39:21.028Z,996.26
2016-03-04T02:40:21.015Z,996.23
2016-03-04T02:41:20.987Z,996.2
2016-03-04T02:42:20.973Z,996.22
2016-03-04T02:43:20.945Z,996.19
2016-03-04T02:44:20.932Z,996.18
2016-03-04T02:45:20.919Z,996.16
2016-03-04T02:46:20.890Z,996.18
2016-03-04T02:47:20.878Z,996.22
2016-03-04T02:48:20.864Z,996.18
2016-03-04T02:49:20.836Z,996.15
2016-03-04T02:50:20.823Z,996.16
2016-03-04T02:51:20.795Z,996.16
2016-03-04T02:52:20.781Z,996.13
2016-03-04T02:53:20.753Z,996.1
2016-03-04T02:54:20.739Z,996.08
2016-03-04T02:55:20.727Z,996.1
2016-03-04T02:56:20.699Z,996.03
2016-03-04T02:57:20.686Z,996
2016-03-04T02:58:20.658Z,995.97
2016-03-04T02:59:20.644Z,995.97
2016-03-04T03:00:20.631Z,996
2016-03-04T03:01:20.603Z,996
2016-03-04T03:02:20.591Z,995.98
2016-03-04T03:03:20.561Z,995.97
2016-03-04T03:04:20.549Z,996
2016-03-04T03:05:20.535Z,995.97
2016-03-04T03:06:20.507Z,995.96
2016-03-04T03:07:20.493Z,995.96
2016-03-04T03:08:20.465Z,995.95
2016-03-04T03:09:20.452Z,995.89
2016-03-04T03:10:20.440Z,995.87
2016-03-04T03:11:20.411Z,995.88
2016-03-04T03:12:20.398Z,995.9
2016-03-04T03:13:20.369Z,995.88
2016-03-04T03:14:20.356Z,995.86
2016-03-04T03:15:20.344Z,995.85
2016-03-04T03:16:20.315Z,995.82
2016-03-04T03:17:20.301Z,995.82
2016-03-04T03:18:20.289Z,995.81
2016-03-04T03:19:20.261Z,995.79
2016-03-04T03:20:20.231Z,995.77
2016-03-04T03:21:20.219Z,995.78
2016-03-04T03:22:20.206Z,995.79
2016-03-04T03:23:20.178Z,995.78
2016-03-04T03:24:20.164Z,995.73
2016-03-04T03:25:20.136Z,995.73
2016-03-04T03:26:20.122Z,995.72
2016-03-04T03:27:20.110Z,995.7
2016-03-04T03:28:20.082Z,995.68
2016-03-04T03:29:20.069Z,995.67
2016-03-04T03:30:20.056Z,995.66
2016-03-04T03:31:20.027Z,995.67
2016-03-04T03:32:20.014Z,995.64
2016-03-04T03:33:19.985Z,995.65
2016-03-04T03:34:19.972Z,995.62
2016-03-04T03:35:19.944Z,995.57
2016-03-04T03:36:19.932Z,995.56
2016-03-04T03:37:19.918Z,995.55
2016-03-04T03:38:19.905Z,995.53
2016-03-04T03:39:19.876Z,995.5
2016-03-04T03:40:19.863Z,995.47
2016-03-04T03:41:19.836Z,995.45
2016-03-04T03:42:19.823Z,995.46
2016-03-04T03:43:19.794Z,995.42
2016-03-04T03:44:19.781Z,995.37
2016-03-04T03:45:19.768Z,995.37
2016-03-04T03:46:19.739Z,995.33
2016-03-04T03:47:19.742Z,995.29
2016-03-04T03:48:19.698Z,995.25
2016-03-04T03:49:19.685Z,995.25
2016-03-04T03:50:19.657Z,995.22
2016-03-04T03:51:19.675Z,995.2
2016-03-04T03:52:19.630Z,995.21
2016-03-04T03:53:19.617Z,995.22
2016-03-04T03:54:19.590Z,995.16
2016-03-04T03:55:19.560Z,995.15
2016-03-04T03:56:19.563Z,995.12
2016-03-04T03:57:19.534Z,995.15
2016-03-04T03:58:19.506Z,995.13
2016-03-04T03:59:19.493Z,995.07
2016-03-04T04:00:19.464Z,995.08
2016-03-04T04:01:19.452Z,995.06
2016-03-04T04:02:19.438Z,995
2016-03-04T04:03:19.410Z,995.03
2016-03-04T04:04:19.397Z,995
2016-03-04T04:05:19.368Z,995
2016-03-04T04:06:19.355Z,994.96
2016-03-04T04:07:19.343Z,994.93
2016-03-04T04:08:19.314Z,994.97
2016-03-04T04:09:19.302Z,994.94
2016-03-04T04:10:19.288Z,994.89
2016-03-04T04:11:19.260Z,994.84
2016-03-04T04:12:19.246Z,994.82
2016-03-04T04:13:19.218Z,994.77
2016-03-04T04:14:19.204Z,994.74
2016-03-04T04:15:19.177Z,994.73
2016-03-04T04:16:19.180Z,994.72
2016-03-04T04:17:19.135Z,994.7
2016-03-04T04:18:19.123Z,994.73
2016-03-04T04:19:19.109Z,994.73
2016-03-04T04:20:19.081Z,994.71
2016-03-04T04:21:19.067Z,994.76
2016-03-04T04:22:19.056Z,994.74
2016-03-04T04:23:19.026Z,994.72
2016-03-04T04:24:19.014Z,994.71
2016-03-04T04:25:18.984Z,994.7
2016-03-04T04:26:18.972Z,994.7
2016-03-04T04:27:18.943Z,994.66
2016-03-04T04:28:18.931Z,994.61
2016-03-04T04:29:18.918Z,994.6
2016-03-04T04:30:18.889Z,994.59
2016-03-04T04:31:18.875Z,994.59
2016-03-04T04:32:18.847Z,994.56
2016-03-04T04:33:18.835Z,994.55
2016-03-04T04:34:18.805Z,994.56
2016-03-04T04:35:18.793Z,994.51
2016-03-04T04:36:18.780Z,994.51
2016-03-04T04:37:18.767Z,994.5
2016-03-04T04:38:18.738Z,994.5
2016-03-04T04:39:18.726Z,994.46
2016-03-04T04:40:18.696Z,994.45
2016-03-04T04:41:18.684Z,994.5
2016-03-04T04:42:18.671Z,994.46
2016-03-04T04:43:18.642Z,994.43
2016-03-04T04:44:18.615Z,994.4
2016-03-04T04:45:18.601Z,994.34
2016-03-04T04:46:18.588Z,994.32
2016-03-04T04:47:18.559Z,994.32
2016-03-04T04:48:18.547Z,994.32
2016-03-04T04:49:18.534Z,994.31
2016-03-04T04:50:18.506Z,994.33
2016-03-04T04:51:18.492Z,994.25
2016-03-04T04:52:18.464Z,994.26
2016-03-04T04:53:18.451Z,994.2
2016-03-04T04:54:18.432Z,994.22
2016-03-04T04:55:18.407Z,994.23
2016-03-04T04:56:24.786Z,994.21
2016-03-04T04:57:18.602Z,994.16
2016-03-04T04:58:18.354Z,994.13
2016-03-04T04:59:18.326Z,994.1
2016-03-04T05:00:18.312Z,994.11
2016-03-04T05:01:18.315Z,994.09
2016-03-04T05:02:18.286Z,994.11
2016-03-04T05:03:18.257Z,994.06
2016-03-04T05:04:18.230Z,994.02
2016-03-04T05:05:18.217Z,994.02
2016-03-04T05:06:18.188Z,994.02
2016-03-04T05:07:18.190Z,993.93
2016-03-04T05:08:18.162Z,993.94
2016-03-04T05:09:18.134Z,993.92
2016-03-04T05:10:18.121Z,993.9
2016-03-04T05:11:18.108Z,993.87
2016-03-04T05:12:18.079Z,993.86
2016-03-04T05:13:18.050Z,993.8
2016-03-04T05:14:18.053Z,993.8
2016-03-04T05:15:18.024Z,993.76
2016-03-04T05:16:17.997Z,993.79
2016-03-04T05:17:17.984Z,993.78
2016-03-04T05:18:17.970Z,993.8
2016-03-04T05:19:17.942Z,993.81
2016-03-04T05:20:17.928Z,993.74
2016-03-04T05:21:17.900Z,993.74
2016-03-04T05:22:17.888Z,993.78
2016-03-04T05:23:17.859Z,993.7
2016-03-04T05:24:17.846Z,993.72
2016-03-04T05:25:17.833Z,993.75
2016-03-04T05:26:17.804Z,993.75
2016-03-04T05:27:17.791Z,993.73
2016-03-04T05:28:17.778Z,993.69
2016-03-04T05:29:17.750Z,993.65
2016-03-04T05:30:17.722Z,993.74
2016-03-04T05:31:17.708Z,993.68
2016-03-04T05:32:17.696Z,993.66
2016-03-04T05:33:17.667Z,993.65
2016-03-04T05:34:17.654Z,993.63
2016-03-04T05:35:17.626Z,993.64
2016-03-04T05:36:17.612Z,993.65
2016-03-04T05:37:17.599Z,993.67
2016-03-04T05:38:17.571Z,993.66
2016-03-04T05:39:17.558Z,993.63
2016-03-04T05:40:17.529Z,993.65
2016-03-04T05:41:17.516Z,993.62
2016-03-04T05:42:17.488Z,993.64
2016-03-04T05:43:17.476Z,993.62
2016-03-04T05:44:17.462Z,993.6
2016-03-04T05:45:17.434Z,993.59
2016-03-04T05:46:17.420Z,993.59
2016-03-04T05:47:17.392Z,993.6
2016-03-04T05:48:17.378Z,993.56
2016-03-04T05:49:17.366Z,993.53
2016-03-04T05:50:17.338Z,993.5
2016-03-04T05:51:17.325Z,993.52
2016-03-04T05:52:17.296Z,993.49
2016-03-04T05:53:17.283Z,993.51
2016-03-04T05:54:17.269Z,993.48
2016-03-04T05:55:17.242Z,993.44
2016-03-04T05:56:17.213Z,993.41
2016-03-04T05:57:17.200Z,993.43
2016-03-04T05:58:17.188Z,993.36
2016-03-04T05:59:17.158Z,993.36
2016-03-04T06:00:17.146Z,993.36
2016-03-04T06:01:17.132Z,993.32
2016-03-04T06:02:17.104Z,993.32
2016-03-04T06:03:17.091Z,993.31
2016-03-04T06:04:17.063Z,993.32
2016-03-04T06:05:17.066Z,993.3
2016-03-04T06:06:17.021Z,993.28
2016-03-04T06:07:17.009Z,993.26
2016-03-04T06:08:16.992Z,993.26
2016-03-04T06:09:16.952Z,993.2
2016-03-04T06:10:16.926Z,993.18
2016-03-04T06:11:16.885Z,993.22
2016-03-04T06:12:16.875Z,993.2
2016-03-04T06:13:16.819Z,993.18
2016-03-04T06:14:16.801Z,993.23
2016-03-04T06:15:16.784Z,993.15
2016-03-04T06:16:16.751Z,993.19
2016-03-04T06:17:16.734Z,993.16
2016-03-04T06:18:16.702Z,993.16
2016-03-04T06:19:16.687Z,993.2
2016-03-04T06:20:16.672Z,993.15
2016-03-04T06:21:16.642Z,993.16
2016-03-04T06:22:16.627Z,993.11
2016-03-04T06:23:16.613Z,993.09
2016-03-04T06:24:16.584Z,993.06
2016-03-04T06:25:16.554Z,993.07
2016-03-04T06:26:16.541Z,993.05
2016-03-04T06:27:16.527Z,993.03
2016-03-04T06:28:16.513Z,993
2016-03-04T06:29:16.485Z,993.01
2016-03-04T06:30:16.457Z,993
2016-03-04T06:31:16.444Z,993
2016-03-04T06:32:16.431Z,992.97
2016-03-04T06:33:16.402Z,993.01
2016-03-04T06:34:16.389Z,992.97
2016-03-04T06:35:16.376Z,992.96
2016-03-04T06:36:16.348Z,992.93
2016-03-04T06:37:16.335Z,992.93
2016-03-04T06:38:16.306Z,992.87
2016-03-04T06:39:16.293Z,992.91
2016-03-04T06:40:16.265Z,992.86
2016-03-04T06:41:16.252Z,992.89
2016-03-04T06:42:16.223Z,992.88
2016-03-04T06:43:16.211Z,992.82
2016-03-04T06:44:16.198Z,992.81
2016-03-04T06:45:16.169Z,992.81
2016-03-04T06:46:16.156Z,992.82
2016-03-04T06:47:16.143Z,992.79
2016-03-04T06:48:16.114Z,992.72
2016-03-04T06:49:16.101Z,992.74
2016-03-04T06:50:16.073Z,992.71
2016-03-04T06:51:16.061Z,992.72
2016-03-04T06:52:16.032Z,992.7
2016-03-04T06:53:16.019Z,992.64
2016-03-04T06:54:16.005Z,992.69
2016-03-04T06:55:15.977Z,992.63
2016-03-04T06:56:15.980Z,992.66
2016-03-04T06:57:15.935Z,992.55
2016-03-04T06:58:15.923Z,992.64
2016-03-04T06:59:15.910Z,992.6
2016-03-04T07:00:17.146Z,992.56
2016-03-04T07:01:17.102Z,992.62
2016-03-04T07:02:16.636Z,992.58
2016-03-04T07:03:16.983Z,992.61
2016-03-04T07:04:16.907Z,992.55
2016-03-04T07:05:17.113Z,992.58
2016-03-04T07:06:15.773Z,992.56
2016-03-04T07:07:15.744Z,992.57
2016-03-04T07:08:17.106Z,992.53
2016-03-04T07:09:17.077Z,992.56
2016-03-04T07:10:17.126Z,992.54
2016-03-04T07:11:17.036Z,992.49
2016-03-04T07:12:16.945Z,992.51
2016-03-04T07:13:17.073Z,992.53
2016-03-04T07:14:16.951Z,992.52
2016-03-04T07:15:16.906Z,992.46
2016-03-04T07:16:16.939Z,992.48
2016-03-04T07:17:16.958Z,992.48
2016-03-04T07:18:17.133Z,992.41
2016-03-04T07:19:16.963Z,992.41
2016-03-04T07:20:16.357Z,992.39
2016-03-04T07:21:16.078Z,992.41
2016-03-04T07:22:16.675Z,992.36
2016-03-04T07:23:16.833Z,992.31
2016-03-04T07:24:16.852Z,992.32
2016-03-04T07:25:15.402Z,992.3
2016-03-04T07:26:15.373Z,992.26
2016-03-04T07:27:15.360Z,992.32
2016-03-04T07:28:15.331Z,992.28
2016-03-04T07:29:15.318Z,992.24
2016-03-04T07:30:15.352Z,992.22
2016-03-04T07:31:15.276Z,992.13
2016-03-04T07:32:15.265Z,992.16
2016-03-04T07:33:15.235Z,992.15
2016-03-04T07:34:15.223Z,992.15
2016-03-04T07:35:15.194Z,992.02
2016-03-04T07:36:15.181Z,992.08
2016-03-04T07:37:15.168Z,992.01
2016-03-04T07:38:15.139Z,992.07
2016-03-04T07:39:15.127Z,991.99
2016-03-04T07:40:15.098Z,992.05
2016-03-04T07:41:15.085Z,991.99
2016-03-04T07:42:15.072Z,991.99
2016-03-04T07:43:15.044Z,991.96
2016-03-04T07:44:15.031Z,991.97
2016-03-04T07:45:15.017Z,991.99
2016-03-04T07:46:14.990Z,991.95
2016-03-04T07:47:14.976Z,992.02
2016-03-04T07:48:14.947Z,991.94
2016-03-04T07:49:14.935Z,991.96
2016-03-04T07:50:14.906Z,991.9
2016-03-04T07:51:14.893Z,991.92
2016-03-04T07:52:14.880Z,991.87
2016-03-04T07:53:14.851Z,991.8
2016-03-04T07:54:14.839Z,991.86
2016-03-04T07:55:14.810Z,991.8
2016-03-04T07:56:14.797Z,991.8
2016-03-04T07:57:14.769Z,991.79
2016-03-04T07:58:14.771Z,991.69
2016-03-04T07:59:14.743Z,991.69
2016-03-04T08:00:14.715Z,991.65
2016-03-04T08:01:14.702Z,991.66
2016-03-04T08:02:14.688Z,991.66
2016-03-04T08:03:14.659Z,991.61
2016-03-04T08:04:14.647Z,991.55
2016-03-04T08:05:14.618Z,991.57
2016-03-04T08:06:14.606Z,991.55
2016-03-04T08:07:14.577Z,991.57
2016-03-04T08:08:14.564Z,991.56
2016-03-04T08:09:14.551Z,991.48
2016-03-04T08:10:14.522Z,991.51
2016-03-04T08:11:14.510Z,991.46
2016-03-04T08:12:14.481Z,991.43
2016-03-04T08:13:14.467Z,991.44
2016-03-04T08:14:14.439Z,991.4
2016-03-04T08:15:14.426Z,991.41
2016-03-04T08:16:14.414Z,991.43
2016-03-04T08:17:14.386Z,991.42
2016-03-04T08:18:14.373Z,991.43
2016-03-04T08:19:14.344Z,991.38
2016-03-04T08:20:14.330Z,991.29
2016-03-04T08:21:14.317Z,991.35
2016-03-04T08:22:14.289Z,991.34
2016-03-04T08:23:14.277Z,991.3
2016-03-04T08:24:14.247Z,991.33
2016-03-04T08:25:14.235Z,991.29
2016-03-04T08:26:14.205Z,991.27
2016-03-04T08:27:14.193Z,991.01
2016-03-04T08:28:14.180Z,990.99
2016-03-04T08:29:14.152Z,990.97
2016-03-04T08:30:14.138Z,990.97
2016-03-04T08:31:14.110Z,990.94
2016-03-04T08:32:14.097Z,990.92
2016-03-04T08:33:14.068Z,990.88
2016-03-04T08:34:14.056Z,990.87
2016-03-04T08:35:14.043Z,990.89
2016-03-04T08:36:14.014Z,990.9
2016-03-04T08:37:14.095Z,990.87
2016-03-04T08:38:14.004Z,990.77
2016-03-04T08:39:13.960Z,990.74
2016-03-04T08:40:13.947Z,990.75
2016-03-04T08:41:13.918Z,990.69
2016-03-04T08:42:13.906Z,990.68
2016-03-04T08:43:13.876Z,990.69
2016-03-04T08:44:13.864Z,990.71
2016-03-04T08:45:13.836Z,990.66
2016-03-04T08:46:13.822Z,990.62
2016-03-04T08:47:13.809Z,990.56
2016-03-04T08:48:13.781Z,990.56
2016-03-04T08:49:13.768Z,990.47
2016-03-04T08:50:13.739Z,990.42
2016-03-04T08:51:13.742Z,990.45
2016-03-04T08:52:13.714Z,990.4
2016-03-04T08:53:13.685Z,990.4
2016-03-04T08:54:13.671Z,990.36
2016-03-04T08:55:13.644Z,990.3
2016-03-04T08:56:13.630Z,990.27
2016-03-04T08:57:13.602Z,990.19
2016-03-04T08:58:13.589Z,990.23
2016-03-04T08:59:13.576Z,990.2
2016-03-04T09:00:13.563Z,990.19
2016-03-04T09:01:13.535Z,990.15
2016-03-04T09:02:13.521Z,990.16
2016-03-04T09:03:13.493Z,990.18
2016-03-04T09:04:13.479Z,990.16
2016-03-04T09:05:13.468Z,990.15
2016-03-04T09:06:13.439Z,990.15
2016-03-04T09:07:13.411Z,990.17
2016-03-04T09:08:13.398Z,990.18
2016-03-04T09:09:13.369Z,990.1
2016-03-04T09:10:13.357Z,990.06
2016-03-04T09:11:13.344Z,990
2016-03-04T09:12:13.315Z,990.07
2016-03-04T09:13:13.319Z,989.96
2016-03-04T09:14:13.274Z,989.95
2016-03-04T09:15:13.261Z,989.94
2016-03-04T09:16:13.248Z,989.91
2016-03-04T09:17:13.219Z,989.91
2016-03-04T09:18:13.206Z,989.89
2016-03-04T09:19:13.177Z,989.9
2016-03-04T09:20:13.179Z,989.93
2016-03-04T09:21:13.152Z,989.88
2016-03-04T09:22:13.123Z,989.86
2016-03-04T09:23:13.110Z,989.84
2016-03-04T09:24:13.082Z,989.75
2016-03-04T09:25:13.068Z,989.8
2016-03-04T09:26:13.056Z,989.82
2016-03-04T09:27:13.043Z,989.8
2016-03-04T09:28:13.014Z,989.81
2016-03-04T09:29:13.001Z,989.76
2016-03-04T09:30:12.973Z,989.77
2016-03-04T09:31:12.959Z,989.73
2016-03-04T09:32:12.932Z,989.66
2016-03-04T09:33:12.919Z,989.69
2016-03-04T09:34:12.905Z,989.67
2016-03-04T09:35:12.877Z,989.73
2016-03-04T09:36:12.864Z,989.68
2016-03-04T09:37:12.851Z,989.71
2016-03-04T09:38:12.822Z,989.67
2016-03-04T09:39:12.810Z,989.64
2016-03-04T09:40:12.781Z,989.7
2016-03-04T09:41:12.769Z,989.69
2016-03-04T09:42:12.755Z,989.74
2016-03-04T09:43:12.727Z,989.66
2016-03-04T09:44:12.713Z,989.66
2016-03-04T09:45:12.685Z,989.66
2016-03-04T09:46:12.672Z,989.62
2016-03-04T09:47:12.643Z,989.63
2016-03-04T09:48:12.630Z,989.6
2016-03-04T09:49:12.618Z,989.6
2016-03-04T09:50:12.605Z,989.6
2016-03-04T09:51:12.577Z,989.58
2016-03-04T09:52:12.563Z,989.61
2016-03-04T09:53:12.534Z,989.6
2016-03-04T09:54:12.522Z,989.61
2016-03-04T09:55:12.493Z,989.57
2016-03-04T09:56:12.480Z,989.6
2016-03-04T09:57:12.468Z,989.62
2016-03-04T09:58:12.439Z,989.58
2016-03-04T09:59:12.442Z,989.58
2016-03-04T10:00:12.413Z,989.64
2016-03-04T10:01:12.384Z,989.61
2016-03-04T10:02:12.372Z,989.57
2016-03-04T10:03:12.359Z,989.48
2016-03-04T10:04:12.345Z,989.38
2016-03-04T10:05:12.316Z,989.35
2016-03-04T10:06:12.289Z,989.33
2016-03-04T10:07:12.275Z,989.33
2016-03-04T10:08:12.263Z,989.31
2016-03-04T10:09:12.234Z,989.25
2016-03-04T10:10:12.221Z,989.21
2016-03-04T10:11:12.192Z,989.21
2016-03-04T10:12:12.180Z,989.22
2016-03-04T10:13:12.166Z,989.24
2016-03-04T10:14:12.138Z,989.24
2016-03-04T10:15:12.141Z,989.23
2016-03-04T10:16:12.112Z,989.2
2016-03-04T10:17:12.084Z,989.16
2016-03-04T10:18:12.071Z,989.09
2016-03-04T10:19:12.057Z,989.08
2016-03-04T10:20:12.030Z,989.08
2016-03-04T10:21:12.016Z,989.06
2016-03-04T10:22:11.987Z,988.95
2016-03-04T10:23:11.975Z,988.97
2016-03-04T10:24:11.962Z,988.95
2016-03-04T10:25:11.934Z,988.9
2016-03-04T10:26:11.920Z,988.86
2016-03-04T10:27:11.907Z,988.82
2016-03-04T10:28:11.879Z,988.85
2016-03-04T10:29:11.865Z,988.83
2016-03-04T10:30:11.837Z,988.78
2016-03-04T10:31:11.824Z,988.78
2016-03-04T10:32:11.812Z,988.68
2016-03-04T10:33:11.798Z,988.64
2016-03-04T10:34:11.770Z,988.61
2016-03-04T10:35:11.757Z,988.57
2016-03-04T10:36:11.728Z,988.61
2016-03-04T10:37:11.716Z,988.52
2016-03-04T10:38:11.703Z,988.55
2016-03-04T10:39:11.721Z,988.49
2016-03-04T10:40:11.661Z,988.52
2016-03-04T10:41:11.633Z,988.46
2016-03-04T10:42:11.635Z,988.43
2016-03-04T10:43:11.607Z,988.47
2016-03-04T10:44:11.577Z,988.46
2016-03-04T10:45:11.566Z,988.45
2016-03-04T10:46:11.552Z,988.43
2016-03-04T10:47:11.523Z,988.39
2016-03-04T10:48:11.511Z,988.32
2016-03-04T10:49:11.498Z,988.29
2016-03-04T10:50:11.469Z,988.27
2016-03-04T10:51:11.457Z,988.25
2016-03-04T10:52:11.428Z,988.28
2016-03-04T10:53:11.415Z,988.26
2016-03-04T10:54:11.402Z,988.27
2016-03-04T10:55:11.373Z,988.26
2016-03-04T10:56:11.360Z,988.22
2016-03-04T10:57:11.348Z,988.22
2016-03-04T10:58:11.319Z,988.2
2016-03-04T10:59:11.306Z,988.19
2016-03-04T11:00:11.292Z,988.18
2016-03-04T11:01:11.265Z,988.16
2016-03-04T11:02:11.251Z,988.2
2016-03-04T11:03:11.222Z,988.16
2016-03-04T11:04:11.226Z,988.15
2016-03-04T11:05:11.198Z,988.13
2016-03-04T11:06:11.169Z,988.16
2016-03-04T11:07:11.155Z,988.1
2016-03-04T11:08:11.143Z,988.11
2016-03-04T11:09:11.114Z,988.09
2016-03-04T11:10:11.100Z,988.03
2016-03-04T11:11:11.089Z,988.01
2016-03-04T11:12:11.060Z,988
2016-03-04T11:13:11.047Z,988.04
2016-03-04T11:14:11.034Z,987.99
2016-03-04T11:15:11.005Z,988.01
2016-03-04T11:16:11.008Z,988.02
2016-03-04T11:17:10.979Z,988.04
2016-03-04T11:18:10.966Z,987.98
2016-03-04T11:19:10.938Z,987.98
2016-03-04T11:20:10.924Z,987.97
2016-03-04T11:21:10.897Z,987.98
2016-03-04T11:22:10.883Z,987.93
2016-03-04T11:23:10.854Z,987.91
2016-03-04T11:24:10.843Z,987.8
2016-03-04T11:25:10.829Z,987.89
2016-03-04T11:26:10.816Z,987.83
2016-03-04T11:27:10.787Z,987.77
2016-03-04T11:28:10.775Z,987.75
2016-03-04T11:29:10.746Z,987.77
2016-03-04T11:30:10.733Z,987.74
2016-03-04T11:31:10.720Z,987.8
2016-03-04T11:32:10.692Z,987.78
2016-03-04T11:33:10.678Z,987.78
2016-03-04T11:34:10.681Z,987.78
2016-03-04T11:35:10.637Z,987.77
2016-03-04T11:36:10.625Z,987.78
2016-03-04T11:37:10.595Z,987.77
2016-03-04T11:38:10.583Z,987.74
2016-03-04T11:39:10.570Z,987.76
2016-03-04T11:40:10.541Z,987.73
2016-03-04T11:41:10.528Z,987.75
2016-03-04T11:42:10.516Z,987.76
2016-03-04T11:43:10.487Z,987.76
2016-03-04T11:44:10.474Z,987.75
2016-03-04T11:45:10.444Z,987.68
2016-03-04T11:46:10.448Z,987.69
2016-03-04T11:47:10.419Z,987.69
2016-03-04T11:48:10.391Z,987.7
2016-03-04T11:49:10.378Z,987.79
2016-03-04T11:50:10.366Z,987.62
2016-03-04T11:51:10.336Z,987.68
2016-03-04T11:52:10.323Z,987.69
2016-03-04T11:53:10.311Z,987.5
2016-03-04T11:54:10.282Z,987.44
2016-03-04T11:55:10.268Z,987.44
2016-03-04T11:56:10.240Z,987.43
2016-03-04T11:57:10.227Z,987.43
2016-03-04T11:58:10.215Z,987.38
2016-03-04T11:59:10.186Z,987.42
2016-03-04T12:00:10.173Z,987.42
2016-03-04T12:01:10.160Z,987.46
2016-03-04T12:02:10.147Z,987.46
2016-03-04T12:03:10.118Z,987.45
2016-03-04T12:04:10.106Z,987.6
2016-03-04T12:05:10.078Z,987.47
2016-03-04T12:06:10.064Z,987.46
2016-03-04T12:07:10.051Z,987.51
2016-03-04T12:08:10.022Z,987.33
2016-03-04T12:09:10.009Z,987.37
2016-03-04T12:10:09.981Z,987.38
2016-03-04T12:11:09.969Z,987.33
2016-03-04T12:12:09.955Z,987.31
2016-03-04T12:13:09.942Z,987.28
2016-03-04T12:14:09.914Z,987.26
2016-03-04T12:15:09.900Z,987.24
2016-03-04T12:16:09.888Z,987.23
2016-03-04T12:17:09.860Z,987.21
2016-03-04T12:18:09.847Z,987.2
2016-03-04T12:19:09.833Z,987.16
2016-03-04T12:20:09.805Z,987.13
2016-03-04T12:21:09.792Z,987.1
2016-03-04T12:22:09.763Z,987.09
2016-03-04T12:23:09.751Z,987.06
2016-03-04T12:24:09.737Z,987.09
2016-03-04T12:25:09.710Z,987.09
2016-03-04T12:26:09.696Z,987.09
2016-03-04T12:27:09.667Z,987.04
2016-03-04T12:28:09.655Z,987.02
2016-03-04T12:29:09.642Z,986.97
2016-03-04T12:30:09.613Z,987.01
2016-03-04T12:31:09.600Z,986.92
2016-03-04T12:32:09.588Z,986.96